KONT

LA/Ontario Airport

Airport
ICAO code
KONT
Summary
ICAO Region
NAM
ICAO Territory
Location

Ontario, California,

Coordinates
34° 3' 39" N , 117° 35' 54" W
KCC
Csa
Airport BS
Bird Strike
Airport WX
Fog
Metar
Observation
KONT 171853Z VRB04KT 10SM FEW100 FEW130 33/10 A2990 RMK AO2 SLP106 TCU DSNT E T03330100
Station
Ontario, Ontario International Airport
Date/Time
2022-08-17 18:53:00
Wind speed
04 kts
Lowest cloud amount
few clouds
Temperature
33.3°C
Dew point
10°C
Humidity
24%
Weather condition
n/a

Description

International airport 20 nm east of the city of Los Angeles.

Climatology

Mediterranean climate or Dry-Summer Subtropical (Köppen climate classification Csa) - Summers are warm to hot and dry. Winters are mild and somewhat rainy. Spring and autumn bring mild days with cool evenings and are generally dry.

Runways

Designator Length Width Surface Rops
08R/26L 3109 46 CON Yes/Yes
08L/26R 3718 46 PEM Yes/Yes

Airport map

Aerial View

SKYbrary Partners:

Safety knowledge contributed by: